Thunder radar more information blitzortung!


Radar de pluja more information rain snow radar


Visita la nostra xarxa de llocs de meteo:

Template documentation
and downloads

And another site



No particular awareness of the weather is required.    There are no Weather-warnings

Pagina Historial Weather Underground text

Diari Resum Juliol 14, 2017 Unitats:  Mètric    Imperial   Tant
« Previous Dia
SegĂźent Dia »
Diari Setmana Mensual Anual Personalitzada
  Maxima: Minima: Media:
Temperatura: 31.8 °C 23.9 °C 26.8 °C
Punt de rosada: 21.5 °C 18.4 °C 19.6 °C
Humitat: 81 % 48 % 65 %
Wind Speed: 16.7 km/h 0.0 km/h 6.7 km/h
RĂ fegues de vent: 20.9 km/h - -
Vent:- - SSE
Pression baro: 1017.8 hPa 1013.8 hPa -
Precipitacions: 0.0 mm    
Historical Graphs
 
 
Dades de taula per Juliol 14, 2017
Temps Temperatura Punt de rosada Pression baro Vent Wind Speed RĂ fegues de vent Humitat Rainfall Rate (Hourly)
00:01 24.5 °C 20.4 °C 1016.8 hPa East 5.6 km/h 5.6 km/h 78 % 0.0 mm
00:05 24.2 °C 20.3 °C 1015.8 hPa Calm   3.2 km/h 79 % 0.0 mm
00:06 24.5 °C 20.4 °C 1016.8 hPa ESE 6.1 km/h 6.1 km/h 78 % 0.0 mm
00:11 24.5 °C 20.6 °C 1016.8 hPa East 5.6 km/h 5.6 km/h 79 % 0.0 mm
00:15 24.2 °C 20.6 °C 1015.8 hPa SW 1.6 km/h 3.2 km/h 80 % 0.0 mm
00:25 24.1 °C 20.4 °C 1015.8 hPa SW 1.6 km/h 1.6 km/h 80 % 0.0 mm
00:35 24.1 °C 20.4 °C 1015.8 hPa Calm   1.6 km/h 80 % 0.0 mm
00:45 24.1 °C 20.4 °C 1015.8 hPa Calm     80 % 0.0 mm
00:55 24.1 °C 20.4 °C 1015.8 hPa Calm   1.6 km/h 80 % 0.0 mm
01:05 24.1 °C 20.4 °C 1015.8 hPa NW 1.6 km/h 3.2 km/h 80 % 0.0 mm
01:15 24.1 °C 20.4 °C 1015.8 hPa Calm   1.6 km/h 80 % 0.0 mm
01:25 24.1 °C 20.4 °C 1015.8 hPa Calm   1.6 km/h 80 % 0.0 mm
01:35 24.1 °C 20.4 °C 1015.8 hPa Calm   3.2 km/h 80 % 0.0 mm
01:45 24.0 °C 20.3 °C 1015.8 hPa Calm     80 % 0.0 mm
01:55 24.0 °C 20.3 °C 1015.8 hPa SW 1.6 km/h 3.2 km/h 80 % 0.0 mm
02:05 24.1 °C 20.4 °C 1016.8 hPa SW 1.6 km/h 1.6 km/h 80 % 0.0 mm
02:15 24.0 °C 20.3 °C 1016.8 hPa WSW 3.2 km/h 6.4 km/h 80 % 0.0 mm
02:25 24.0 °C 20.3 °C 1016.8 hPa SW 3.2 km/h 4.8 km/h 80 % 0.0 mm
02:35 23.9 °C 20.2 °C 1016.8 hPa SW 4.8 km/h 6.4 km/h 80 % 0.0 mm
02:45 24.0 °C 20.3 °C 1016.8 hPa SW 3.2 km/h 3.2 km/h 80 % 0.0 mm
02:55 24.0 °C 20.6 °C 1016.8 hPa SW 3.2 km/h 6.4 km/h 81 % 0.0 mm
03:05 24.1 °C 20.6 °C 1016.8 hPa SW 3.2 km/h 4.8 km/h 81 % 0.0 mm
03:15 24.2 °C 20.6 °C 1016.8 hPa WSW 1.6 km/h 4.8 km/h 80 % 0.0 mm
03:25 24.5 °C 20.8 °C 1016.8 hPa Calm   4.8 km/h 80 % 0.0 mm
03:35 24.7 °C 20.8 °C 1017.8 hPa SW 3.2 km/h 4.8 km/h 79 % 0.0 mm
03:45 24.8 °C 20.9 °C 1017.8 hPa SW 4.8 km/h 8.0 km/h 79 % 0.0 mm
03:55 24.9 °C 21.0 °C 1017.8 hPa SW 1.6 km/h 4.8 km/h 79 % 0.0 mm
04:05 25.1 °C 21.0 °C 1017.8 hPa Calm   6.4 km/h 78 % 0.0 mm
04:15 25.5 °C 21.2 °C 1016.8 hPa SW 1.6 km/h 3.2 km/h 77 % 0.0 mm
04:25 25.6 °C 21.1 °C 1016.8 hPa SW 3.2 km/h 4.8 km/h 76 % 0.0 mm
04:35 25.8 °C 21.2 °C 1017.8 hPa SSW 3.2 km/h 4.8 km/h 76 % 0.0 mm
04:45 25.8 °C 21.1 °C 1017.8 hPa South 3.2 km/h 4.8 km/h 75 % 0.0 mm
04:55 26.3 °C 21.5 °C 1017.8 hPa SSW 1.6 km/h 6.4 km/h 75 % 0.0 mm
05:05 26.5 °C 21.1 °C 1017.8 hPa SW 3.2 km/h 6.4 km/h 72 % 0.0 mm
05:15 26.7 °C 20.8 °C 1017.8 hPa SSW 4.8 km/h 4.8 km/h 70 % 0.0 mm
10:23 26.8 °C 20.6 °C 1017.8 hPa ESE 3.9 km/h 5.3 km/h 69 % 0.0 mm
10:28 26.2 °C 20.1 °C 1017.8 hPa ESE 7.9 km/h 7.9 km/h 69 % 0.0 mm
10:33 25.8 °C 19.7 °C 1017.8 hPa NE 11.1 km/h 11.1 km/h 69 % 0.0 mm
10:38 25.7 °C 19.6 °C 1017.8 hPa ENE 7.4 km/h 7.4 km/h 69 % 0.0 mm
10:43 25.5 °C 19.2 °C 1017.8 hPa ENE 9.3 km/h 9.3 km/h 68 % 0.0 mm
10:48 25.3 °C 18.9 °C 1017.8 hPa ENE 11.1 km/h 11.1 km/h 68 % 0.0 mm
10:53 25.4 °C 19.1 °C 1017.8 hPa ESE 9.3 km/h 9.3 km/h 68 % 0.0 mm
10:58 25.5 °C 19.2 °C 1017.8 hPa North 9.3 km/h 9.3 km/h 68 % 0.0 mm
11:03 25.6 °C 19.3 °C 1017.8 hPa ENE 11.1 km/h 11.1 km/h 68 % 0.0 mm
11:08 25.7 °C 19.3 °C 1017.8 hPa ESE 13.0 km/h 13.0 km/h 68 % 0.0 mm
11:13 25.5 °C 19.2 °C 1017.8 hPa ENE 13.0 km/h 13.0 km/h 68 % 0.0 mm
11:18 25.4 °C 19.1 °C 1017.8 hPa ENE 9.3 km/h 9.3 km/h 68 % 0.0 mm
11:23 25.5 °C 19.4 °C 1016.8 hPa East 9.3 km/h 9.3 km/h 69 % 0.0 mm
11:28 25.5 °C 19.2 °C 1016.8 hPa ESE 10.0 km/h 10.0 km/h 68 % 0.0 mm
11:33 25.5 °C 19.4 °C 1016.8 hPa ENE 7.4 km/h 7.4 km/h 69 % 0.0 mm
11:38 25.5 °C 19.4 °C 1016.8 hPa ENE 9.7 km/h 9.7 km/h 69 % 0.0 mm
11:43 25.5 °C 19.4 °C 1016.8 hPa ESE 9.3 km/h 9.3 km/h 69 % 0.0 mm
11:48 25.5 °C 19.4 °C 1016.8 hPa SSE 11.1 km/h 11.1 km/h 69 % 0.0 mm
11:53 25.6 °C 19.7 °C 1016.8 hPa SE 3.7 km/h 3.7 km/h 70 % 0.0 mm
11:58 25.8 °C 19.9 °C 1016.8 hPa SSE 5.6 km/h 5.6 km/h 70 % 0.0 mm
12:03 25.8 °C 19.9 °C 1016.8 hPa ESE 6.4 km/h 6.4 km/h 70 % 0.0 mm
12:08 25.9 °C 20.0 °C 1016.8 hPa ENE 13.0 km/h 13.0 km/h 70 % 0.0 mm
12:13 25.9 °C 20.0 °C 1016.8 hPa ESE 7.4 km/h 7.4 km/h 70 % 0.0 mm
12:18 25.9 °C 20.0 °C 1016.8 hPa ESE 13.0 km/h 13.0 km/h 70 % 0.0 mm
12:23 26.0 °C 20.1 °C 1016.8 hPa ENE 9.3 km/h 9.3 km/h 70 % 0.0 mm
12:28 26.1 °C 20.2 °C 1016.8 hPa ESE 9.3 km/h 9.3 km/h 70 % 0.0 mm
12:33 26.2 °C 20.3 °C 1016.8 hPa ENE 11.1 km/h 11.1 km/h 70 % 0.0 mm
12:38 26.1 °C 20.2 °C 1016.8 hPa ESE 3.7 km/h 3.7 km/h 70 % 0.0 mm
12:43 26.6 °C 20.7 °C 1016.8 hPa SSW 5.6 km/h 5.6 km/h 70 % 0.0 mm
12:48 26.8 °C 20.6 °C 1016.8 hPa East 3.7 km/h 3.7 km/h 69 % 0.0 mm
12:53 26.7 °C 20.3 °C 1016.8 hPa ESE 9.3 km/h 9.3 km/h 68 % 0.0 mm
12:58 26.5 °C 20.3 °C 1016.8 hPa NE 3.7 km/h 3.7 km/h 69 % 0.0 mm
13:03 26.6 °C 20.4 °C 1016.8 hPa ENE 7.4 km/h 7.4 km/h 69 % 0.0 mm
13:08 26.7 °C 20.6 °C 1016.8 hPa East 7.4 km/h 7.4 km/h 69 % 0.0 mm
13:13 26.7 °C 20.6 °C 1016.8 hPa SE 3.7 km/h 3.7 km/h 69 % 0.0 mm
13:18 27.0 °C 20.6 °C 1016.8 hPa ENE 5.6 km/h 5.6 km/h 68 % 0.0 mm
13:23 27.0 °C 20.6 °C 1016.8 hPa ENE 1.9 km/h 1.9 km/h 68 % 0.0 mm
13:28 27.2 °C 20.8 °C 1016.8 hPa SE 2.3 km/h   68 % 0.0 mm
13:33 27.4 °C 20.7 °C 1016.8 hPa NW 3.7 km/h 3.7 km/h 67 % 0.0 mm
13:38 27.9 °C 20.2 °C 1017.8 hPa WSW 7.4 km/h 7.4 km/h 63 % 0.0 mm
13:43 28.7 °C 20.7 °C 1017.8 hPa SW 3.7 km/h 3.7 km/h 62 % 0.0 mm
13:48 29.3 °C 20.7 °C 1017.8 hPa SW 3.7 km/h 3.9 km/h 60 % 0.0 mm
13:53 29.6 °C 20.7 °C 1016.8 hPa SW 11.1 km/h 11.1 km/h 59 % 0.0 mm
13:58 29.8 °C 20.4 °C 1016.8 hPa WSW 14.5 km/h 14.5 km/h 57 % 0.0 mm
14:03 30.1 °C 20.3 °C 1016.8 hPa South 14.8 km/h 14.8 km/h 56 % 0.0 mm
14:08 30.6 °C 20.2 °C 1015.8 hPa SW 9.3 km/h 9.3 km/h 54 % 0.0 mm
14:13 30.4 °C 20.1 °C 1015.8 hPa SW 11.1 km/h 11.1 km/h 54 % 0.0 mm
14:18 30.6 °C 19.6 °C 1015.8 hPa SSE 6.9 km/h 6.9 km/h 52 % 0.0 mm
14:23 31.2 °C 19.9 °C 1015.8 hPa SW 13.0 km/h 13.0 km/h 51 % 0.0 mm
14:28 30.8 °C 19.8 °C 1015.8 hPa NW 9.3 km/h 9.3 km/h 52 % 0.0 mm
14:33 31.2 °C 19.6 °C 1015.8 hPa SW 9.3 km/h 9.3 km/h 50 % 0.0 mm
14:38 31.7 °C 20.0 °C 1015.8 hPa West 7.9 km/h 7.9 km/h 50 % 0.0 mm
14:43 30.6 °C 19.0 °C 1015.8 hPa SSW 13.0 km/h 13.0 km/h 50 % 0.0 mm
14:48 30.7 °C 19.1 °C 1015.8 hPa South 9.3 km/h 9.3 km/h 50 % 0.0 mm
14:53 30.6 °C 19.0 °C 1014.8 hPa SW 12.2 km/h 12.2 km/h 50 % 0.0 mm
14:58 30.4 °C 19.1 °C 1014.8 hPa South 13.0 km/h 13.0 km/h 51 % 0.0 mm
15:03 30.6 °C 19.0 °C 1014.8 hPa SSE 5.6 km/h 5.6 km/h 50 % 0.0 mm
15:08 30.3 °C 18.7 °C 1014.8 hPa West 14.8 km/h 14.8 km/h 50 % 0.0 mm
15:13 30.5 °C 19.2 °C 1014.8 hPa SW 16.7 km/h 16.7 km/h 51 % 0.0 mm
15:18 31.1 °C 19.4 °C 1014.8 hPa SSW 14.8 km/h 14.8 km/h 50 % 0.0 mm
15:23 31.3 °C 19.3 °C 1014.8 hPa West 13.0 km/h 13.0 km/h 49 % 0.0 mm
15:28 31.3 °C 19.3 °C 1014.8 hPa SSW 14.8 km/h 14.8 km/h 49 % 0.0 mm
15:33 31.7 °C 19.7 °C 1014.8 hPa West 7.4 km/h 7.4 km/h 49 % 0.0 mm
15:35 31.8 °C 19.4 °C 1014.8 hPa SW 5.6 km/h 5.6 km/h 48 % 0.0 mm
15:40 31.1 °C 18.8 °C 1014.8 hPa SW 9.7 km/h 20.9 km/h 48 % 0.0 mm
15:45 31.3 °C 19.3 °C 1014.8 hPa SW 4.8 km/h 11.3 km/h 49 % 0.0 mm
15:50 30.7 °C 18.8 °C 1014.8 hPa SSW 4.8 km/h 16.1 km/h 49 % 0.0 mm
15:55 30.3 °C 18.4 °C 1014.8 hPa South 4.8 km/h 12.9 km/h 49 % 0.0 mm
16:00 30.3 °C 18.8 °C 1014.8 hPa South 3.2 km/h 8.0 km/h 50 % 0.0 mm
16:05 30.5 °C 19.2 °C 1014.8 hPa South 4.8 km/h 11.3 km/h 51 % 0.0 mm
16:10 29.8 °C 18.6 °C 1014.8 hPa South 8.0 km/h 16.1 km/h 51 % 0.0 mm
16:15 29.9 °C 18.7 °C 1014.8 hPa SSW 4.8 km/h 9.7 km/h 51 % 0.0 mm
16:20 30.0 °C 18.8 °C 1014.8 hPa SW 8.0 km/h 9.7 km/h 51 % 0.0 mm
16:25 30.2 °C 18.9 °C 1014.8 hPa SW 4.8 km/h 11.3 km/h 51 % 0.0 mm
16:30 30.9 °C 19.6 °C 1014.8 hPa SSW 3.2 km/h 9.7 km/h 51 % 0.0 mm
16:35 30.9 °C 19.3 °C 1014.8 hPa SW 9.7 km/h 14.5 km/h 50 % 0.0 mm
16:40 30.8 °C 19.2 °C 1014.8 hPa SW 4.8 km/h 14.5 km/h 50 % 0.0 mm
16:45 30.7 °C 19.1 °C 1014.8 hPa SW 8.0 km/h 14.5 km/h 50 % 0.0 mm
16:50 29.9 °C 18.7 °C 1014.8 hPa SW 9.3 km/h 9.3 km/h 51 % 0.0 mm
16:55 30.0 °C 18.8 °C 1014.8 hPa SSE 7.9 km/h 7.9 km/h 51 % 0.0 mm
17:00 30.0 °C 18.8 °C 1014.8 hPa West 5.6 km/h 5.6 km/h 51 % 0.0 mm
17:02 30.1 °C 18.8 °C 1014.8 hPa West 11.1 km/h 11.1 km/h 51 % 0.0 mm
17:07 29.9 °C 18.7 °C 1014.8 hPa SSW 9.3 km/h 9.3 km/h 51 % 0.0 mm
17:12 30.3 °C 19.1 °C 1014.8 hPa South 9.3 km/h 9.3 km/h 51 % 0.0 mm
17:17 30.4 °C 19.1 °C 1014.8 hPa South 11.1 km/h 11.1 km/h 51 % 0.0 mm
17:22 30.3 °C 19.1 °C 1014.8 hPa SSW 13.0 km/h 13.0 km/h 51 % 0.0 mm
17:27 29.8 °C 18.9 °C 1013.8 hPa SSW 9.3 km/h 9.3 km/h 52 % 0.0 mm
17:32 29.5 °C 18.6 °C 1013.8 hPa WSW 9.3 km/h 9.3 km/h 52 % 0.0 mm
17:37 29.9 °C 19.0 °C 1013.8 hPa SW 13.0 km/h 13.0 km/h 52 % 0.0 mm
17:42 30.4 °C 19.4 °C 1013.8 hPa SW 7.4 km/h 7.4 km/h 52 % 0.0 mm
17:47 30.5 °C 19.6 °C 1013.8 hPa SSW 10.0 km/h 10.0 km/h 52 % 0.0 mm
17:52 29.6 °C 19.0 °C 1013.8 hPa SSW 16.7 km/h 16.7 km/h 53 % 0.0 mm
17:57 29.6 °C 19.0 °C 1014.8 hPa South 10.0 km/h 10.0 km/h 53 % 0.0 mm
18:02 29.5 °C 18.9 °C 1014.8 hPa SSW 13.0 km/h 13.0 km/h 53 % 0.0 mm
18:07 29.6 °C 19.3 °C 1014.8 hPa SSW 7.4 km/h 7.4 km/h 54 % 0.0 mm
18:12 29.9 °C 19.6 °C 1014.8 hPa SW 7.4 km/h 7.4 km/h 54 % 0.0 mm
18:17 29.9 °C 19.6 °C 1014.8 hPa SW 5.6 km/h 5.6 km/h 54 % 0.0 mm
18:22 30.4 °C 19.7 °C 1014.8 hPa SSW 9.3 km/h 9.3 km/h 53 % 0.0 mm
18:27 30.1 °C 19.4 °C 1013.8 hPa South 13.0 km/h 13.0 km/h 53 % 0.0 mm
18:32 29.7 °C 19.4 °C 1013.8 hPa South 13.0 km/h 13.0 km/h 54 % 0.0 mm
18:37 29.1 °C 18.8 °C 1013.8 hPa ENE 9.3 km/h 9.3 km/h 54 % 0.0 mm
18:42 29.0 °C 19.1 °C 1014.8 hPa WSW 7.4 km/h 7.4 km/h 55 % 0.0 mm
18:47 28.9 °C 19.2 °C 1014.8 hPa SW 9.0 km/h 9.0 km/h 56 % 0.0 mm
18:52 28.6 °C 18.9 °C 1014.8 hPa ESE 9.3 km/h 9.3 km/h 56 % 0.0 mm
18:57 28.1 °C 18.8 °C 1014.8 hPa ESE 3.7 km/h 3.7 km/h 57 % 0.0 mm
19:02 27.8 °C 18.8 °C 1014.8 hPa ESE 7.4 km/h 7.4 km/h 58 % 0.0 mm
19:07 27.0 °C 18.6 °C 1014.8 hPa ESE 9.3 km/h 9.3 km/h 60 % 0.0 mm
19:12 26.5 °C 18.6 °C 1014.8 hPa SSE 9.3 km/h 9.3 km/h 62 % 0.0 mm
19:17 27.0 °C 18.6 °C 1014.8 hPa South 7.4 km/h 7.4 km/h 60 % 0.0 mm
19:22 27.1 °C 18.7 °C 1014.8 hPa SSE 5.6 km/h 5.6 km/h 60 % 0.0 mm
19:27 26.7 °C 18.6 °C 1014.8 hPa West 5.6 km/h 5.6 km/h 61 % 0.0 mm
19:32 26.8 °C 18.9 °C 1014.8 hPa West 5.6 km/h 5.6 km/h 62 % 0.0 mm
19:37 26.9 °C 19.0 °C 1014.8 hPa SSE 7.4 km/h 7.4 km/h 62 % 0.0 mm
19:42 26.9 °C 19.0 °C 1014.8 hPa South 3.2 km/h   62 % 0.0 mm
19:47 26.7 °C 19.1 °C 1014.8 hPa ESE 6.1 km/h 6.1 km/h 63 % 0.0 mm
19:52 26.3 °C 18.7 °C 1014.8 hPa WSW 1.4 km/h   63 % 0.0 mm
19:57 26.0 °C 18.7 °C 1014.8 hPa East 7.4 km/h 7.4 km/h 64 % 0.0 mm
20:02 25.6 °C 18.6 °C 1014.8 hPa East 7.4 km/h 7.4 km/h 65 % 0.0 mm
20:07 25.5 °C 18.7 °C 1014.8 hPa East 9.3 km/h 9.3 km/h 66 % 0.0 mm
20:12 25.4 °C 18.8 °C 1014.8 hPa East 9.3 km/h 9.3 km/h 67 % 0.0 mm
20:17 25.2 °C 18.6 °C 1014.8 hPa East 9.3 km/h 9.3 km/h 67 % 0.0 mm
20:22 25.1 °C 18.6 °C 1014.8 hPa East 7.4 km/h 7.4 km/h 67 % 0.0 mm
20:27 25.1 °C 18.8 °C 1014.8 hPa WNW 9.3 km/h 9.3 km/h 68 % 0.0 mm
20:32 25.0 °C 18.7 °C 1014.8 hPa ESE 9.3 km/h 9.3 km/h 68 % 0.0 mm
20:37 24.8 °C 19.2 °C 1015.8 hPa ENE 9.3 km/h 9.3 km/h 71 % 0.0 mm
20:42 24.8 °C 18.9 °C 1015.8 hPa SSE 7.4 km/h 7.4 km/h 70 % 0.0 mm
20:47 24.7 °C 18.8 °C 1015.8 hPa ENE 7.4 km/h 7.4 km/h 70 % 0.0 mm
20:52 24.7 °C 19.1 °C 1014.8 hPa East 3.7 km/h 3.7 km/h 71 % 0.0 mm
20:57 24.7 °C 18.8 °C 1014.8 hPa NNE 5.6 km/h 5.6 km/h 70 % 0.0 mm
21:02 24.7 °C 19.1 °C 1014.8 hPa NE 5.6 km/h 5.6 km/h 71 % 0.0 mm
21:07 24.8 °C 19.2 °C 1015.8 hPa ENE 3.7 km/h   71 % 0.0 mm
21:12 24.8 °C 19.2 °C 1015.8 hPa East 7.4 km/h 7.4 km/h 71 % 0.0 mm
21:17 24.7 °C 19.1 °C 1015.8 hPa ENE 7.4 km/h 7.4 km/h 71 % 0.0 mm
21:22 24.7 °C 19.1 °C 1014.8 hPa NE 5.6 km/h 5.6 km/h 71 % 0.0 mm
21:27 24.6 °C 19.0 °C 1014.8 hPa ENE 5.6 km/h 5.6 km/h 71 % 0.0 mm
21:32 24.5 °C 19.1 °C 1014.8 hPa East 9.3 km/h 9.3 km/h 72 % 0.0 mm
21:37 24.6 °C 19.0 °C 1015.8 hPa East 7.4 km/h 7.4 km/h 71 % 0.0 mm
21:42 24.5 °C 19.1 °C 1015.8 hPa ESE 7.4 km/h 7.4 km/h 72 % 0.0 mm
21:47 24.4 °C 19.2 °C 1015.8 hPa ESE 9.3 km/h 9.3 km/h 73 % 0.0 mm
21:52 24.3 °C 19.2 °C 1014.8 hPa SE 9.3 km/h 9.3 km/h 73 % 0.0 mm
21:57 24.4 °C 19.2 °C 1014.8 hPa East 5.6 km/h 5.6 km/h 73 % 0.0 mm
22:02 24.4 °C 19.2 °C 1014.8 hPa ESE 5.6 km/h 5.6 km/h 73 % 0.0 mm
22:07 24.4 °C 19.2 °C 1015.8 hPa ESE 5.6 km/h 5.6 km/h 73 % 0.0 mm
22:12 24.3 °C 19.2 °C 1015.8 hPa SE 5.6 km/h 5.6 km/h 73 % 0.0 mm
22:17 24.3 °C 19.2 °C 1015.8 hPa ESE 5.6 km/h 5.6 km/h 73 % 0.0 mm
22:22 24.4 °C 19.2 °C 1015.8 hPa SE 5.6 km/h 5.6 km/h 73 % 0.0 mm
22:27 24.4 °C 19.2 °C 1015.8 hPa ENE 5.6 km/h 5.6 km/h 73 % 0.0 mm
22:32 24.3 °C 19.2 °C 1015.8 hPa SE 5.6 km/h 5.6 km/h 73 % 0.0 mm
22:37 24.3 °C 19.2 °C 1015.8 hPa ESE 5.6 km/h 5.6 km/h 73 % 0.0 mm
22:42 24.4 °C 19.2 °C 1015.8 hPa East 5.3 km/h 5.3 km/h 73 % 0.0 mm
22:47 24.4 °C 19.2 °C 1015.8 hPa East 3.9 km/h 3.9 km/h 73 % 0.0 mm
22:52 24.4 °C 19.2 °C 1016.8 hPa NE 3.7 km/h 3.7 km/h 73 % 0.0 mm
22:57 24.3 °C 19.4 °C 1016.8 hPa ENE 5.6 km/h 5.6 km/h 74 % 0.0 mm
23:02 24.4 °C 19.4 °C 1016.8 hPa ESE 3.7 km/h 5.0 km/h 74 % 0.0 mm
23:07 24.3 °C 19.2 °C 1016.8 hPa ESE 5.3 km/h 5.3 km/h 73 % 0.0 mm
23:12 24.3 °C 19.4 °C 1016.8 hPa ESE 3.7 km/h 3.7 km/h 74 % 0.0 mm
23:17 24.3 °C 19.2 °C 1016.8 hPa East 2.6 km/h 2.6 km/h 73 % 0.0 mm
23:22 24.3 °C 19.4 °C 1016.8 hPa ESE 1.9 km/h 1.9 km/h 74 % 0.0 mm
23:27 24.3 °C 19.2 °C 1016.8 hPa WSW 3.7 km/h 3.7 km/h 73 % 0.0 mm
23:32 24.3 °C 19.2 °C 1016.8 hPa SW 3.7 km/h 3.7 km/h 73 % 0.0 mm
23:37 24.3 °C 19.2 °C 1016.8 hPa Calm     73 % 0.0 mm
23:42 24.4 °C 19.2 °C 1016.8 hPa WSW 3.7 km/h 3.7 km/h 73 % 0.0 mm
23:47 24.4 °C 19.2 °C 1016.8 hPa WSW 3.7 km/h 3.7 km/h 73 % 0.0 mm
23:52 24.5 °C 19.3 °C 1017.8 hPa West 3.7 km/h 3.7 km/h 73 % 0.0 mm
23:57 24.5 °C 19.3 °C 1017.8 hPa WSW 3.7 km/h 3.7 km/h 73 % 0.0 mm
23:59 24.5 °C 19.3 °C 1017.8 hPa WSW 4.2 km/h 4.2 km/h 73 % 0.0 mm
Meteo Sesrovires
Elogis d' Weather Underground - 3.5 mb

Guio original per  Jim McMurry - jmcmurry@mwt.net Adaptat per a la plantilla per  Wim van der Kuil - Leuven-Template.eu

Trobareu la nostra informacio del temps tambe a:

Weather Underground

AWEKAS